Time;durP1;ratioP1;P1;durP2;ratioP2;P2;SDS_P1;SDS_P2;PMS_P1;PMS_P2;Temp;Humidity;BMP_temperature;BMP_pressure;BME280_temperature;BME280_humidity;BME280_pressure;Samples;Min_cycle;Max_cycle;Signal;HPM_P1;HPM_P2
2021/11/28 00:01:32;;;;;;;1999.90;999.90;;;;;;;4.79;77.81;99060.00;15498678;28;20097;-63
2021/11/28 00:16:59;;;;;;;1999.90;999.90;;;;;;;5.11;76.08;99059.31;15501695;28;20077;-65
2021/11/28 00:24:34;;;;;;;1999.90;999.90;;;;;;;5.06;76.81;99066.97;15507079;28;20451;-65
2021/11/28 00:32:08;;;;;;;1999.90;999.90;;;;;;;5.29;76.61;99050.84;15499808;28;20050;-65
2021/11/28 00:39:43;;;;;;;1999.90;999.90;;;;;;;5.30;77.65;99056.03;15500686;28;20133;-65
2021/11/28 00:47:16;;;;;;;1999.90;999.90;;;;;;;5.24;78.09;99042.78;15499489;28;20054;-68
2021/11/28 00:54:50;;;;;;;1999.90;999.90;;;;;;;5.47;78.02;99053.13;15499531;28;20077;-68
2021/11/28 01:02:23;;;;;;;1999.90;999.90;;;;;;;5.47;77.29;99046.81;15499707;28;20531;-68
2021/11/28 01:09:58;;;;;;;1999.90;999.90;;;;;;;5.51;76.69;99039.44;15497915;28;20053;-68
2021/11/28 01:17:32;;;;;;;1999.90;999.90;;;;;;;5.32;77.56;99037.19;15501374;28;20042;-68
2021/11/28 01:25:08;;;;;;;1999.90;999.90;;;;;;;5.48;76.47;99046.44;15488301;28;20050;-67
2021/11/28 01:32:44;;;;;;;1999.90;999.90;;;;;;;5.32;76.73;99070.38;15496514;28;20050;-67
2021/11/28 01:40:21;;;;;;;1999.90;999.90;;;;;;;5.10;77.53;99081.75;15496337;28;20046;-67
2021/11/28 01:47:56;;;;;;;1999.90;999.90;;;;;;;4.99;78.03;99100.66;15496035;28;20583;-68
2021/11/28 01:55:34;;;;;;;1999.90;999.90;;;;;;;5.05;78.05;99093.00;15496166;28;20104;-67
2021/11/28 02:03:11;;;;;;;1999.90;999.90;;;;;;;5.10;78.28;99101.91;15494549;28;20153;-67
2021/11/28 02:10:45;;;;;;;1999.90;999.90;;;;;;;5.10;77.67;99107.44;15494347;28;20057;-68
2021/11/28 02:18:18;;;;;;;1999.90;999.90;;;;;;;5.06;77.96;99092.66;15494066;28;20049;-67
2021/11/28 02:25:57;;;;;;;1999.90;999.90;;;;;;;5.36;77.42;99096.19;15493329;28;20462;-68
2021/11/28 02:33:32;;;;;;;1999.90;999.90;;;;;;;5.26;77.67;99087.50;15493585;28;20046;-67
2021/11/28 02:41:06;;;;;;;1999.90;999.90;;;;;;;5.40;76.75;99088.03;15493670;28;20039;-68
2021/11/28 02:48:43;;;;;;;1999.90;999.90;;;;;;;5.19;76.83;99077.75;15493246;28;20400;-68
2021/11/28 02:56:18;;;;;;;1999.90;999.90;;;;;;;5.08;77.02;99065.50;15493490;28;20104;-68
2021/11/28 03:03:52;;;;;;;1999.90;999.90;;;;;;;5.13;76.66;99073.59;15492045;28;20043;-69
2021/11/28 03:11:27;;;;;;;1999.90;999.90;;;;;;;5.06;77.32;99069.75;15497040;28;20066;-68
2021/11/28 03:18:59;;;;;;;1999.90;999.90;;;;;;;4.99;77.09;99077.75;15505385;28;20079;-68
2021/11/28 03:26:37;;;;;;;1999.90;999.90;;;;;;;4.91;76.32;99083.03;15506076;28;20064;-68
2021/11/28 03:34:14;;;;;;;1999.90;999.90;;;;;;;4.56;77.27;99095.38;15491054;28;20133;-67
2021/11/28 03:41:56;;;;;;;1999.90;999.90;;;;;;;4.32;77.09;99093.22;15502772;28;20065;-67
2021/11/28 03:49:29;;;;;;;1999.90;999.90;;;;;;;4.21;77.59;99100.25;15502392;28;20054;-68
2021/11/28 03:57:04;;;;;;;1999.90;999.90;;;;;;;4.18;77.08;99109.22;15504073;28;20082;-67
2021/11/28 04:04:37;;;;;;;1999.90;999.90;;;;;;;4.10;76.15;99121.88;15502524;28;20118;-67
2021/11/28 04:12:23;;;;;;;1999.90;999.90;;;;;;;3.99;76.67;99118.66;15501471;28;20077;-67
2021/11/28 04:19:56;;;;;;;1999.90;999.90;;;;;;;3.95;76.91;99100.31;15500370;28;20104;-67
2021/11/28 04:27:30;;;;;;;;;;;;;;;3.90;75.59;99097.75;15500645;28;20042;-67
2021/11/28 04:35:07;;;;;;;1999.90;999.90;;;;;;;3.54;76.34;99092.59;15499492;28;20299;-67
2021/11/28 04:42:42;;;;;;;1999.90;999.90;;;;;;;3.38;76.34;99106.06;15499485;28;20038;-66
2021/11/28 04:50:15;;;;;;;1999.90;999.90;;;;;;;3.18;76.63;99116.59;15498724;28;20108;-66
2021/11/28 04:57:50;;;;;;;1999.90;999.90;;;;;;;3.32;76.85;99123.91;15503644;28;20035;-66
2021/11/28 05:05:25;;;;;;;1999.90;999.90;;;;;;;3.20;76.94;99130.06;15490026;28;20314;-66
2021/11/28 05:13:25;;;;;;;1999.90;999.90;;;;;;;3.08;76.98;99133.44;15493091;28;20132;-66
2021/11/28 05:20:58;;;;;;;1999.90;999.90;;;;;;;2.82;78.28;99129.84;15496737;28;20054;-66
2021/11/28 05:28:33;;;;;;;1999.90;999.90;;;;;;;2.86;77.57;99139.06;15496339;28;20038;-66
2021/11/28 05:36:06;;;;;;;1999.90;999.90;;;;;;;2.82;77.50;99136.16;15495687;28;20312;-66
2021/11/28 05:43:58;;;;;;;1999.90;999.90;;;;;;;2.77;77.45;99143.75;15495794;28;20049;-66
2021/11/28 05:51:33;;;;;;;1999.90;999.90;;;;;;;2.74;77.52;99134.19;15495426;28;20057;-66
2021/11/28 05:59:08;;;;;;;1999.90;999.90;;;;;;;2.66;77.60;99137.72;15495912;28;20439;-65
2021/11/28 06:06:41;;;;;;;1999.90;999.90;;;;;;;2.62;76.58;99125.72;15494874;28;20455;-66
2021/11/28 06:14:23;;;;;;;1999.90;999.90;;;;;;;2.56;76.82;99149.81;15494154;28;20046;-65
2021/11/28 06:22:10;;;;;;;1999.90;999.90;;;;;;;2.47;77.41;99159.97;15434397;28;20381;-66
2021/11/28 06:29:56;;;;;;;1999.90;999.90;;;;;;;2.44;77.84;99151.56;15433476;28;20046;-66
2021/11/28 06:37:49;;;;;;;1999.90;999.90;;;;;;;2.31;77.59;99172.56;15434014;28;20042;-66
2021/11/28 06:45:42;;;;;;;1999.90;999.90;;;;;;;2.21;77.74;99176.38;15433219;28;20058;-66
2021/11/28 06:53:16;;;;;;;1999.90;999.90;;;;;;;2.26;76.77;99180.94;15432307;28;20050;-65
2021/11/28 07:01:16;;;;;;;1999.90;999.90;;;;;;;2.31;77.14;99178.88;15433774;28;20051;-66
2021/11/28 07:09:00;;;;;;;1999.90;999.90;;;;;;;2.25;76.38;99182.06;15432309;28;20051;-66
2021/11/28 07:16:34;;;;;;;1999.90;999.90;;;;;;;2.20;76.67;99180.25;15448928;28;20507;-66
2021/11/28 07:24:07;;;;;;;1999.90;999.90;;;;;;;2.25;76.29;99191.13;15491924;28;20105;-66
2021/11/28 07:31:42;;;;;;;1999.90;999.90;;;;;;;2.23;75.64;99200.81;15491922;28;20333;-66
2021/11/28 07:39:15;;;;;;;1999.90;999.90;;;;;;;2.27;76.36;99190.81;15492877;28;20458;-66
2021/11/28 07:46:51;;;;;;;1999.90;999.90;;;;;;;2.12;76.49;99189.28;15492747;28;20618;-66
2021/11/28 07:54:29;;;;;;;1999.90;999.90;;;;;;;2.41;76.35;99201.75;15494143;28;20034;-66
2021/11/28 08:02:04;;;;;;;1999.90;999.90;;;;;;;2.72;75.53;99210.81;15505246;28;20049;-66
2021/11/28 08:09:47;;;;;;;1999.90;999.90;;;;;;;2.76;75.64;99220.06;15501865;28;20046;-66
2021/11/28 08:17:21;;;;;;;1999.90;999.90;;;;;;;3.06;75.46;99225.84;15497568;28;20050;-66
2021/11/28 08:24:54;;;;;;;1999.90;999.90;;;;;;;3.25;74.71;99231.91;15504476;28;20054;-66
2021/11/28 08:32:28;;;;;;;1999.90;999.90;;;;;;;3.53;73.68;99221.38;15502883;28;20050;-67
2021/11/28 08:40:22;;;;;;;1999.90;999.90;;;;;;;3.86;72.39;99223.72;15503821;28;20533;-66
2021/11/28 08:47:56;;;;;;;1999.90;999.90;;;;;;;4.96;70.19;99233.22;15503957;28;20425;-66
2021/11/28 08:55:30;;;;;;;1999.90;999.90;;;;;;;5.99;64.89;99237.34;15503732;28;20046;-67
2021/11/28 09:03:05;;;;;;;1999.90;999.90;;;;;;;7.68;61.71;99251.06;15504386;28;20048;-66
2021/11/28 09:10:38;;;;;;;1999.90;999.90;;;;;;;7.95;59.22;99249.50;15504877;28;20478;-67
2021/11/28 09:18:16;;;;;;;;;;;;;;;9.48;55.56;99256.47;15503342;28;20046;-67
2021/11/28 09:25:49;;;;;;;1999.90;999.90;;;;;;;10.09;54.76;99255.88;15502517;28;19976;-67
2021/11/28 09:33:23;;;;;;;1999.90;999.90;;;;;;;10.07;53.68;99241.50;15500345;28;20579;-67
2021/11/28 09:40:59;;;;;;;1999.90;999.90;;;;;;;11.76;50.18;99238.63;15495724;28;20039;-67
2021/11/28 09:48:35;;;;;;;1999.90;999.90;;;;;;;11.95;49.23;99229.34;15495119;28;20046;-66
2021/11/28 09:56:08;;;;;;;1999.90;999.90;;;;;;;11.79;50.23;99224.75;15495121;28;20100;-66
2021/11/28 10:03:43;;;;;;;1999.90;999.90;;;;;;;11.66;50.78;99228.09;15494939;28;20455;-68
2021/11/28 10:11:56;;;;;;;1999.90;999.90;;;;;;;11.59;50.68;99223.22;15495343;28;20538;-67
2021/11/28 10:19:32;;;;;;;1999.90;999.90;;;;;;;10.75;52.61;99213.03;15494646;28;20046;-67
2021/11/28 10:27:09;;;;;;;1999.90;999.90;;;;;;;11.01;51.87;99201.13;15494465;28;20062;-64
2021/11/28 10:34:45;;;;;;;1999.90;999.90;;;;;;;11.39;51.47;99202.97;15482046;28;20412;-66
2021/11/28 10:42:21;;;;;;;1999.90;999.90;;;;;;;9.58;57.06;99208.56;15494836;28;20534;-65
2021/11/28 10:50:07;;;;;;;1999.90;999.90;;;;;;;10.86;54.85;99216.03;15495175;28;20093;-65
2021/11/28 10:57:40;;;;;;;1999.90;999.90;;;;;;;12.69;48.61;99207.06;15496882;28;20051;-65
2021/11/28 11:05:22;;;;;;;1999.90;999.90;;;;;;;13.49;46.59;99205.44;15493379;28;20573;-64
2021/11/28 11:12:55;;;;;;;1999.90;999.90;;;;;;;14.37;45.05;99206.31;15493726;28;20050;-64
2021/11/28 11:20:32;;;;;;;1999.90;999.90;;;;;;;13.70;46.04;99210.38;15492215;28;20050;-65
2021/11/28 11:28:10;;;;;;;1999.90;999.90;;;;;;;14.01;45.07;99211.78;15493006;28;20096;-65
2021/11/28 11:35:51;;;;;;;1999.90;999.90;;;;;;;14.44;44.45;99201.56;15501294;28;20061;-65
2021/11/28 11:43:25;;;;;;;1999.90;999.90;;;;;;;14.89;42.96;99209.69;15504763;28;20403;-66
2021/11/28 11:50:59;;;;;;;;;;;;;;;15.86;41.61;99219.78;15505534;28;20073;-64
2021/11/28 11:58:45;;;;;;;1999.90;999.90;;;;;;;17.09;38.79;99213.22;15501913;28;19921;-65
2021/11/28 12:06:39;;;;;;;1999.90;999.90;;;;;;;16.76;39.51;99211.81;15502405;28;20047;-64
2021/11/28 12:14:12;;;;;;;1999.90;999.90;;;;;;;17.89;37.14;99210.13;15501912;28;20081;-64
2021/11/28 12:21:46;;;;;;;1999.90;999.90;;;;;;;18.51;36.16;99216.69;15500573;28;20058;-66
2021/11/28 12:29:28;;;;;;;1999.90;999.90;;;;;;;17.53;37.45;99204.81;15502610;28;20429;-65
2021/11/28 12:37:03;;;;;;;1999.90;999.90;;;;;;;18.68;36.11;99199.53;15502469;28;20047;-65
2021/11/28 12:44:38;;;;;;;1999.90;999.90;;;;;;;20.67;32.45;99206.59;15500686;28;20086;-66
2021/11/28 12:52:36;;;;;;;1999.90;999.90;;;;;;;15.96;39.30;99193.66;15499395;28;20042;-66
2021/11/28 13:00:29;;;;;;;1999.90;999.90;;;;;;;13.96;44.16;99192.50;15498686;28;20046;-66
2021/11/28 13:08:35;;;;;;;1999.90;999.90;;;;;;;13.96;43.56;99186.09;15499810;28;20049;-66
2021/11/28 13:16:12;;;;;;;1999.90;999.90;;;;;;;11.55;50.16;99191.63;15499145;28;20113;-67
2021/11/28 13:23:48;;;;;;;1999.90;999.90;;;;;;;11.08;50.93;99192.06;15497186;28;20042;-65
2021/11/28 13:31:52;;;;;;;1999.90;999.90;;;;;;;13.13;46.50;99193.13;15487202;28;20042;-65
2021/11/28 13:39:28;;;;;;;1999.90;999.90;;;;;;;9.68;53.91;99182.94;15498144;28;20113;-64
2021/11/28 13:47:03;;;;;;;1999.90;999.90;;;;;;;8.99;56.76;99181.72;15496768;28;20463;-66
2021/11/28 13:54:39;;;;;;;1999.90;999.90;;;;;;;8.65;58.06;99178.50;15495459;28;20134;-64
2021/11/28 14:02:17;;;;;;;1999.90;999.90;;;;;;;8.29;59.32;99187.81;15496453;28;20089;-64
2021/11/28 14:09:53;;;;;;;1999.90;999.90;;;;;;;7.49;61.41;99185.84;15495790;28;20055;-64
2021/11/28 14:17:27;;;;;;;1999.90;999.90;;;;;;;7.12;63.01;99196.19;15495395;28;20046;-64
2021/11/28 14:25:23;;;;;;;1999.90;999.90;;;;;;;7.09;63.46;99202.44;15495588;28;20043;-64
2021/11/28 14:32:59;;;;;;;1999.90;999.90;;;;;;;6.57;65.15;99208.59;15495770;28;20128;-64
2021/11/28 14:40:33;;;;;;;1999.90;999.90;;;;;;;6.83;63.88;99213.84;15495669;28;20129;-64
2021/11/28 14:48:14;;;;;;;1999.90;999.90;;;;;;;6.34;66.20;99212.91;15493949;28;20475;-64
2021/11/28 14:55:50;;;;;;;1999.90;999.90;;;;;;;6.55;65.22;99232.25;15492527;28;20041;-64
2021/11/28 15:03:23;;;;;;;1999.90;999.90;;;;;;;6.12;65.36;99224.34;15491849;28;20526;-64
2021/11/28 15:10:59;;;;;;;1999.90;999.90;;;;;;;5.95;65.93;99220.59;15504759;28;20121;-64
2021/11/28 15:18:31;;;;;;;1999.90;999.90;;;;;;;5.56;66.90;99216.31;15504332;28;20063;-63
2021/11/28 15:26:05;;;;;;;1999.90;999.90;;;;;;;5.53;66.93;99218.94;15506560;28;20054;-65
2021/11/28 15:33:38;;;;;;;1999.90;999.90;;;;;;;5.39;68.59;99231.03;15506912;28;20504;-65
2021/11/28 15:41:12;;;;;;;1999.90;999.90;;;;;;;5.52;68.93;99234.69;15504778;28;20059;-65
2021/11/28 15:48:45;;;;;;;1999.90;999.90;;;;;;;5.65;68.76;99236.44;15504435;28;20101;-65
2021/11/28 15:56:19;;;;;;;1999.90;999.90;;;;;;;5.73;68.11;99238.34;15504137;28;20050;-65
2021/11/28 16:03:55;;;;;;;1999.90;999.90;;;;;;;5.70;68.05;99243.72;15503868;28;20112;-65
2021/11/28 16:11:30;;;;;;;1999.90;999.90;;;;;;;5.13;70.37;99244.22;15503249;28;20156;-65
2021/11/28 16:19:04;;;;;;;1999.90;999.90;;;;;;;5.12;71.37;99239.84;15500752;28;20050;-65
2021/11/28 16:26:38;;;;;;;1999.90;999.90;;;;;;;5.56;69.89;99252.28;15506652;28;20117;-63
2021/11/28 16:34:11;;;;;;;1999.90;999.90;;;;;;;5.51;70.19;99264.31;15501737;28;20133;-65
2021/11/28 16:41:45;;;;;;;1999.90;999.90;;;;;;;5.53;70.35;99261.25;15556995;22;20130;-61
2021/11/28 16:49:19;;;;;;;1999.90;999.90;;;;;;;5.43;70.49;99259.69;15555755;28;20041;-59
2021/11/28 16:56:55;;;;;;;1999.90;999.90;;;;;;;5.50;70.01;99250.84;15555304;28;20125;-60
2021/11/28 17:04:28;;;;;;;1999.90;999.90;;;;;;;5.33;69.99;99273.06;15543970;28;20100;-60
2021/11/28 17:12:02;;;;;;;1999.90;999.90;;;;;;;4.90;71.82;99263.81;15556118;28;20041;-61
2021/11/28 17:19:35;;;;;;;1999.90;999.90;;;;;;;5.09;71.48;99265.34;15553742;28;20125;-61
2021/11/28 17:27:13;;;;;;;1999.90;999.90;;;;;;;5.29;71.57;99261.03;15554966;28;20396;-60
2021/11/28 17:34:46;;;;;;;1999.90;999.90;;;;;;;5.33;69.94;99276.66;15553776;28;20045;-61
2021/11/28 17:42:20;;;;;;;1999.90;999.90;;;;;;;5.21;71.11;99266.31;15554169;28;20088;-60
2021/11/28 17:49:53;;;;;;;1999.90;999.90;;;;;;;4.96;71.86;99271.91;15552036;28;20133;-60
2021/11/28 17:57:28;;;;;;;1999.90;999.90;;;;;;;5.24;70.80;99269.53;15553463;28;20558;-60
2021/11/28 18:05:01;;;;;;;1999.90;999.90;;;;;;;5.32;70.60;99263.16;15552131;28;20524;-61
2021/11/28 18:12:35;;;;;;;1999.90;999.90;;;;;;;5.33;71.04;99273.06;15553121;28;20136;-61
2021/11/28 18:20:10;;;;;;;1999.90;999.90;;;;;;;5.36;70.47;99269.63;15550992;28;20045;-61
2021/11/28 18:27:44;;;;;;;1999.90;999.90;;;;;;;5.37;70.27;99274.03;15551696;28;20328;-61
2021/11/28 18:35:17;;;;;;;1999.90;999.90;;;;;;;5.59;70.34;99286.75;15549707;28;20057;-61
2021/11/28 18:42:52;;;;;;;1999.90;999.90;;;;;;;5.55;70.32;99289.38;15541897;28;20050;-61
2021/11/28 18:50:27;;;;;;;1999.90;999.90;;;;;;;5.50;71.47;99301.44;15547249;28;20049;-60
2021/11/28 18:58:01;;;;;;;1999.90;999.90;;;;;;;5.52;70.38;99298.34;15549196;28;20483;-60
2021/11/28 19:05:34;;;;;;;1999.90;999.90;;;;;;;5.41;71.97;99305.38;15550416;28;20487;-61
2021/11/28 19:13:08;;;;;;;1999.90;999.90;;;;;;;5.42;71.34;99305.09;15551786;28;20145;-61
2021/11/28 19:20:41;;;;;;;1999.90;999.90;;;;;;;5.48;71.30;99306.50;15549967;28;20458;-61
2021/11/28 19:28:16;;;;;;;1999.90;999.90;;;;;;;5.38;71.06;99317.13;15552040;28;20056;-61
2021/11/28 19:35:49;;;;;;;1999.90;999.90;;;;;;;5.21;71.61;99316.06;15557974;28;20046;-59
2021/11/28 19:43:23;;;;;;;1999.90;999.90;;;;;;;5.46;71.62;99324.59;15548757;28;20060;-60
2021/11/28 19:50:56;;;;;;;1999.90;999.90;;;;;;;5.36;72.24;99324.97;15549326;28;20115;-60
2021/11/28 19:58:31;;;;;;;1999.90;999.90;;;;;;;5.57;70.71;99323.06;15563499;28;20069;-60
2021/11/28 20:06:04;;;;;;;1999.90;999.90;;;;;;;5.42;71.53;99321.69;15559704;28;20096;-61
2021/11/28 20:13:39;;;;;;;1999.90;999.90;;;;;;;5.42;71.27;99321.69;15557371;28;20149;-60
2021/11/28 20:21:12;;;;;;;1999.90;999.90;;;;;;;5.34;71.76;99330.00;15558831;28;20081;-60
2021/11/28 20:28:47;;;;;;;1999.90;999.90;;;;;;;5.43;72.56;99334.38;15558458;28;20049;-60
2021/11/28 20:36:21;;;;;;;1999.90;999.90;;;;;;;5.62;71.92;99344.19;15548508;28;20104;-61
2021/11/28 20:43:55;;;;;;;;;;;;;;;5.60;71.56;99329.88;15557559;28;20050;-60
2021/11/28 20:51:28;;;;;;;1999.90;999.90;;;;;;;5.51;71.65;99322.44;15555349;28;20020;-60
2021/11/28 20:59:03;;;;;;;1999.90;999.90;;;;;;;5.57;71.88;99320.28;15556159;28;21117;-62
2021/11/28 21:06:40;;;;;;;1999.90;999.90;;;;;;;5.64;71.33;99319.78;15553827;28;20042;-59
2021/11/28 21:14:16;;;;;;;1999.90;999.90;;;;;;;5.50;72.27;99320.81;15554347;28;20108;-60
2021/11/28 21:21:49;;;;;;;1999.90;999.90;;;;;;;5.36;72.82;99316.66;15555388;28;20046;-59
2021/11/28 21:29:23;;;;;;;1999.90;999.90;;;;;;;5.38;72.29;99317.94;15554766;28;20125;-62
2021/11/28 21:36:56;;;;;;;1999.90;999.90;;;;;;;4.86;73.60;99325.59;15553464;28;20068;-60
2021/11/28 21:44:30;;;;;;;1999.90;999.90;;;;;;;5.02;74.00;99321.19;15553204;28;20111;-61
2021/11/28 21:52:04;;;;;;;1999.90;999.90;;;;;;;4.92;74.47;99313.25;15553737;28;20053;-61
2021/11/28 21:59:38;;;;;;;;;;;;;;;5.21;74.00;99310.53;15552826;28;20126;-61
2021/11/28 22:07:11;;;;;;;1999.90;999.90;;;;;;;5.27;73.83;99313.13;15552639;28;20032;-61
2021/11/28 22:14:45;;;;;;;1999.90;999.90;;;;;;;5.21;73.86;99318.84;15552213;28;20073;-61
2021/11/28 22:22:18;;;;;;;1999.90;999.90;;;;;;;5.32;73.85;99324.00;15551108;28;20407;-60
2021/11/28 22:29:52;;;;;;;1999.90;999.90;;;;;;;5.42;73.63;99329.97;15540423;28;20062;-61
2021/11/28 22:37:26;;;;;;;1999.90;999.90;;;;;;;5.42;72.50;99329.97;15554438;22;20050;-65
2021/11/28 22:45:01;;;;;;;;;;;;;;;5.66;73.45;99336.88;15518350;28;20170;-65
2021/11/28 22:52:34;;;;;;;1999.90;999.90;;;;;;;5.66;72.97;99345.97;15571158;28;19921;-65
2021/11/28 23:00:15;;;;;;;1999.90;999.90;;;;;;;5.51;73.03;99338.22;15548441;28;20089;-67
2021/11/28 23:07:48;;;;;;;1999.90;999.90;;;;;;;5.51;73.26;99343.75;15492433;28;20077;-65
2021/11/28 23:15:23;;;;;;;1999.90;999.90;;;;;;;5.68;73.17;99343.69;15493647;28;20042;-65
2021/11/28 23:22:56;;;;;;;1999.90;999.90;;;;;;;5.65;73.16;99346.31;15492286;28;20046;-64
2021/11/28 23:30:30;;;;;;;1999.90;999.90;;;;;;;5.75;72.64;99355.03;15500036;28;20130;-64
2021/11/28 23:38:03;;;;;;;1999.90;999.90;;;;;;;5.66;73.32;99347.94;15542316;28;20054;-64
2021/11/28 23:45:37;;;;;;;1999.90;999.90;;;;;;;5.74;72.42;99364.50;15565010;28;20049;-65
2021/11/28 23:53:10;;;;;;;1999.90;999.90;;;;;;;5.49;73.13;99373.72;15563221;28;20308;-65
